PWSweather.com
Personal Weather Stations
Station Observations

BunburyAU

Lat: -33.378333, Lon: 115.651667

Elevation: 95

Station Type: Fine Offset WH2081

http://www.sedgleymanor.com/wx/index.htm

Latest ConditionsUpdated 9:45:00 PM GMT+08:08 Wednesday, Oct 22, 2014
Currently Today's Max Today's Min Today's Average
Temperature 64.2°F17.9°C 88.7°F31.5°C 57.7°F14.3°C 70.8°F21.6°C
Dew Point 57.9°F14.4°C 64.0°F17.8°C 51.4°F10.8°C 57.5°F14.2°C
Winds 2.9 mph SW4.7 kmh SW 9.7 mph N15.6 kmh N - 5.3 mph 8.5 kmh
Wind Gusts 9.8 mph15.8 kmh 19.7 mph31.7 kmh - -
Humidity 80% 88% 36% 66%
Pressure 29.90 in1012.5 mb 30.05 in1017.6 mb 29.78 in1008.5 mb -
Hour Temp Dew Point Humidity Winds Wind Gusts Pressure Precip Precip Rate Daily Precip Total
09:45 PM 64.2°F17.9°C 57.9°F14.4°C 80% 2.9 mph SW4.7 kmh SW 9.8 mph15.8 kmh 29.90 in1012.5 mb 0.00 in0.0 mm 0.00 in/hr0.0 mm/hr 0.00 in0.0 mm
09:30 PM 64.6°F18.1°C 59.0°F15.0°C 82% 3.1 mph SSW5.0 kmh SSW 9.2 mph14.8 kmh 29.90 in1012.5 mb 0.00 in0.0 mm 0.00 in/hr0.0 mm/hr 0.00 in0.0 mm
09:15 PM 64.8°F18.2°C 59.8°F15.4°C 84% 3.3 mph W5.3 kmh W 9.8 mph15.8 kmh 29.89 in1012.2 mb 0.00 in0.0 mm 0.00 in/hr0.0 mm/hr 0.00 in0.0 mm
09:00 PM 64.4°F18.0°C 60.1°F15.6°C 86% 2.1 mph SW3.4 kmh SW 7.6 mph12.2 kmh 29.89 in1012.2 mb 0.00 in0.0 mm 0.00 in/hr0.0 mm/hr 0.00 in0.0 mm
08:45 PM 64.9°F18.3°C 60.7°F15.9°C 86% 2.8 mph WSW4.5 kmh WSW 7.6 mph12.2 kmh 29.88 in1011.9 mb 0.00 in0.0 mm 0.00 in/hr0.0 mm/hr 0.00 in0.0 mm
08:30 PM 64.9°F18.3°C 60.3°F15.7°C 85% 1.8 mph WSW2.9 kmh WSW 8.3 mph13.4 kmh 29.88 in1011.9 mb 0.00 in0.0 mm 0.00 in/hr0.0 mm/hr 0.00 in0.0 mm
08:15 PM 65.7°F18.7°C 61.4°F16.3°C 86% 2.6 mph WSW4.2 kmh WSW 6.9 mph11.1 kmh 29.87 in1011.5 mb 0.00 in0.0 mm 0.00 in/hr0.0 mm/hr 0.00 in0.0 mm
08:00 PM 66.2°F19.0°C 61.9°F16.6°C 86% 2.9 mph W4.7 kmh W 12.1 mph19.5 kmh 29.87 in1011.5 mb 0.00 in0.0 mm 0.00 in/hr0.0 mm/hr 0.00 in0.0 mm
07:45 PM 66.6°F19.2°C 62.6°F17.0°C 87% 3.9 mph SW6.3 kmh SW 17.4 mph28.0 kmh 29.87 in1011.5 mb 0.00 in0.0 mm 0.00 in/hr0.0 mm/hr 0.00 in0.0 mm
07:30 PM 66.6°F19.2°C 62.9°F17.2°C 88% 3.3 mph W5.3 kmh W 8.3 mph13.4 kmh 29.87 in1011.5 mb 0.00 in0.0 mm 0.00 in/hr0.0 mm/hr 0.00 in0.0 mm
07:15 PM 66.7°F19.3°C 62.8°F17.1°C 87% 1.8 mph NW2.9 kmh NW 6.9 mph11.1 kmh 29.86 in1011.2 mb 0.00 in0.0 mm 0.00 in/hr0.0 mm/hr 0.00 in0.0 mm
07:00 PM 67.3°F19.6°C 62.6°F17.0°C 85% 3.0 mph SSW4.8 kmh SSW 8.3 mph13.4 kmh 29.85 in1010.8 mb 0.00 in0.0 mm 0.00 in/hr0.0 mm/hr 0.00 in0.0 mm
06:45 PM 67.8°F19.9°C 62.8°F17.1°C 84% 2.1 mph SW3.4 kmh SW 12.1 mph19.5 kmh 29.85 in1010.8 mb 0.00 in0.0 mm 0.00 in/hr0.0 mm/hr 0.00 in0.0 mm
06:30 PM 68.0°F20.0°C 62.3°F16.8°C 82% 2.2 mph WSW3.5 kmh WSW 6.9 mph11.1 kmh 29.85 in1010.8 mb 0.00 in0.0 mm 0.00 in/hr0.0 mm/hr 0.00 in0.0 mm
06:15 PM 68.5°F20.3°C 62.2°F16.8°C 80% 2.3 mph NW3.7 kmh NW 7.6 mph12.2 kmh 29.85 in1010.8 mb 0.00 in0.0 mm 0.00 in/hr0.0 mm/hr 0.00 in0.0 mm
06:00 PM 69.8°F21.0°C 61.2°F16.2°C 74% 2.3 mph NNE3.7 kmh NNE 11.4 mph18.3 kmh 29.84 in1010.5 mb 0.00 in0.0 mm 0.00 in/hr0.0 mm/hr 0.00 in0.0 mm
05:45 PM 72.1°F22.3°C 61.8°F16.6°C 70% 3.5 mph WSW5.6 kmh WSW 10.7 mph17.2 kmh 29.84 in1010.5 mb 0.00 in0.0 mm 0.00 in/hr0.0 mm/hr 0.00 in0.0 mm
05:30 PM 73.0°F22.8°C 62.7°F17.1°C 70% 4.0 mph WSW6.4 kmh WSW 9.8 mph15.8 kmh 29.83 in1010.2 mb 0.00 in0.0 mm 0.00 in/hr0.0 mm/hr 0.00 in0.0 mm
05:15 PM 72.9°F22.7°C 62.9°F17.2°C 71% 2.9 mph NW4.7 kmh NW 8.3 mph13.4 kmh 29.82 in1009.8 mb 0.00 in0.0 mm 0.00 in/hr0.0 mm/hr 0.00 in0.0 mm
05:00 PM 75.0°F23.9°C 62.9°F17.2°C 66% 3.3 mph NNW5.3 kmh NNW 8.3 mph13.4 kmh 29.82 in1009.8 mb 0.00 in0.0 mm 0.00 in/hr0.0 mm/hr 0.00 in0.0 mm
04:45 PM 76.6°F24.8°C 64.0°F17.8°C 65% 4.0 mph NW6.4 kmh NW 8.3 mph13.4 kmh 29.81 in1009.5 mb 0.00 in0.0 mm 0.00 in/hr0.0 mm/hr 0.00 in0.0 mm
04:30 PM 77.2°F25.1°C 62.7°F17.1°C 61% 3.1 mph NW5.0 kmh NW 10.7 mph17.2 kmh 29.80 in1009.1 mb 0.00 in0.0 mm 0.00 in/hr0.0 mm/hr 0.00 in0.0 mm
04:15 PM 77.5°F25.3°C 62.6°F17.0°C 60% 3.1 mph WNW5.0 kmh WNW 8.3 mph13.4 kmh 29.80 in1009.1 mb 0.00 in0.0 mm 0.00 in/hr0.0 mm/hr 0.00 in0.0 mm
04:00 PM 77.7°F25.4°C 61.3°F16.3°C 57% 3.6 mph SW5.8 kmh SW 11.4 mph18.3 kmh 29.79 in1008.8 mb 0.00 in0.0 mm 0.00 in/hr0.0 mm/hr 0.00 in0.0 mm
03:45 PM 79.0°F26.1°C 60.4°F15.8°C 53% 2.8 mph NE4.5 kmh NE 7.6 mph12.2 kmh 29.78 in1008.5 mb 0.00 in0.0 mm 0.00 in/hr0.0 mm/hr 0.00 in0.0 mm
03:30 PM 79.0°F26.1°C 59.9°F15.5°C 52% 4.3 mph WNW6.9 kmh WNW 15.9 mph25.6 kmh 29.78 in1008.5 mb 0.00 in0.0 mm 0.00 in/hr0.0 mm/hr 0.00 in0.0 mm
03:15 PM 79.2°F26.2°C 60.1°F15.6°C 52% 5.8 mph W9.3 kmh W 13.6 mph21.9 kmh 29.79 in1008.8 mb 0.00 in0.0 mm 0.00 in/hr0.0 mm/hr 0.00 in0.0 mm
03:00 PM 81.1°F27.3°C 59.0°F15.0°C 47% 3.8 mph W6.1 kmh W 10.7 mph17.2 kmh 29.79 in1008.8 mb 0.00 in0.0 mm 0.00 in/hr0.0 mm/hr 0.00 in0.0 mm
02:45 PM 83.5°F28.6°C 58.7°F14.8°C 43% 4.5 mph NNW7.2 kmh NNW 12.1 mph19.5 kmh 29.79 in1008.8 mb 0.00 in0.0 mm 0.00 in/hr0.0 mm/hr 0.00 in0.0 mm
02:30 PM 88.0°F31.1°C 59.2°F15.1°C 38% 2.8 mph N4.5 kmh N 10.7 mph17.2 kmh 29.80 in1009.1 mb 0.00 in0.0 mm 0.00 in/hr0.0 mm/hr 0.00 in0.0 mm
02:15 PM 85.3°F29.6°C 59.0°F15.0°C 41% 2.9 mph WSW4.7 kmh WSW 8.3 mph13.4 kmh 29.80 in1009.1 mb 0.00 in0.0 mm 0.00 in/hr0.0 mm/hr 0.00 in0.0 mm
02:00 PM 86.5°F30.3°C 59.4°F15.2°C 40% 3.1 mph NW5.0 kmh NW 6.9 mph11.1 kmh 29.80 in1009.1 mb 0.00 in0.0 mm 0.00 in/hr0.0 mm/hr 0.00 in0.0 mm
01:45 PM 86.5°F30.3°C 58.7°F14.8°C 39% 6.1 mph N9.8 kmh N 12.1 mph19.5 kmh 29.80 in1009.1 mb 0.00 in0.0 mm 0.00 in/hr0.0 mm/hr 0.00 in0.0 mm
01:30 PM 86.9°F30.5°C 57.5°F14.2°C 37% 8.5 mph N13.7 kmh N 13.0 mph20.9 kmh 29.80 in1009.1 mb 0.00 in0.0 mm 0.00 in/hr0.0 mm/hr 0.00 in0.0 mm
01:15 PM 88.2°F31.2°C 57.9°F14.4°C 36% 9.7 mph N15.6 kmh N 15.2 mph24.5 kmh 29.81 in1009.5 mb 0.00 in0.0 mm 0.00 in/hr0.0 mm/hr 0.00 in0.0 mm
01:00 PM 88.7°F31.5°C 58.4°F14.7°C 36% 8.7 mph NE14.0 kmh NE 15.2 mph24.5 kmh 29.81 in1009.5 mb 0.00 in0.0 mm 0.00 in/hr0.0 mm/hr 0.00 in0.0 mm
12:45 PM 86.5°F30.3°C 57.2°F14.0°C 37% 7.8 mph NE12.6 kmh NE 15.2 mph24.5 kmh 29.83 in1010.2 mb 0.00 in0.0 mm 0.00 in/hr0.0 mm/hr 0.00 in0.0 mm
12:30 PM 87.1°F30.6°C 57.7°F14.3°C 37% 7.6 mph N12.2 kmh N 15.9 mph25.6 kmh 29.83 in1010.2 mb 0.00 in0.0 mm 0.00 in/hr0.0 mm/hr 0.00 in0.0 mm
12:15 PM 84.9°F29.4°C 58.0°F14.4°C 40% 9.0 mph NNE14.5 kmh NNE 19.7 mph31.7 kmh 29.84 in1010.5 mb 0.00 in0.0 mm 0.00 in/hr0.0 mm/hr 0.00 in0.0 mm
12:00 PM 84.9°F29.4°C 58.6°F14.8°C 41% 9.5 mph E15.3 kmh E 19.0 mph30.6 kmh 29.83 in1010.2 mb 0.00 in0.0 mm 0.00 in/hr0.0 mm/hr 0.00 in0.0 mm
11:45 AM 85.5°F29.7°C 58.4°F14.7°C 40% 8.7 mph WNW14.0 kmh WNW 17.4 mph28.0 kmh 29.85 in1010.8 mb 0.00 in0.0 mm 0.00 in/hr0.0 mm/hr 0.00 in0.0 mm
11:30 AM 84.0°F28.9°C 58.5°F14.7°C 42% 7.6 mph NE12.2 kmh NE 14.5 mph23.3 kmh 29.86 in1011.2 mb 0.00 in0.0 mm 0.00 in/hr0.0 mm/hr 0.00 in0.0 mm
11:15 AM 83.3°F28.5°C 58.5°F14.7°C 43% 7.6 mph NNE12.2 kmh NNE 15.2 mph24.5 kmh 29.87 in1011.5 mb 0.00 in0.0 mm 0.00 in/hr0.0 mm/hr 0.00 in0.0 mm
11:00 AM 83.3°F28.5°C 58.5°F14.7°C 43% 7.1 mph NE11.4 kmh NE 11.4 mph18.3 kmh 29.88 in1011.9 mb 0.00 in0.0 mm 0.00 in/hr0.0 mm/hr 0.00 in0.0 mm
10:45 AM 81.3°F27.4°C 57.4°F14.1°C 44% 7.7 mph ENE12.4 kmh ENE 14.5 mph23.3 kmh 29.89 in1012.2 mb 0.00 in0.0 mm 0.00 in/hr0.0 mm/hr 0.00 in0.0 mm
10:30 AM 82.6°F28.1°C 58.5°F14.7°C 44% 6.8 mph E10.9 kmh E 15.2 mph24.5 kmh 29.90 in1012.5 mb 0.00 in0.0 mm 0.00 in/hr0.0 mm/hr 0.00 in0.0 mm
10:15 AM 79.7°F26.5°C 56.5°F13.6°C 45% 9.4 mph ENE15.1 kmh ENE 19.0 mph30.6 kmh 29.91 in1012.9 mb 0.00 in0.0 mm 0.00 in/hr0.0 mm/hr 0.00 in0.0 mm
10:00 AM 81.1°F27.3°C 56.6°F13.7°C 43% 5.5 mph NE8.9 kmh NE 9.8 mph15.8 kmh 29.93 in1013.5 mb 0.00 in0.0 mm 0.00 in/hr0.0 mm/hr 0.00 in0.0 mm
09:45 AM 80.2°F26.8°C 57.6°F14.2°C 46% 5.4 mph NE8.7 kmh NE 9.8 mph15.8 kmh 29.93 in1013.5 mb 0.00 in0.0 mm 0.00 in/hr0.0 mm/hr 0.00 in0.0 mm
09:30 AM 78.4°F25.8°C 57.2°F14.0°C 48% 5.0 mph NE8.0 kmh NE 9.8 mph15.8 kmh 29.95 in1014.2 mb 0.00 in0.0 mm 0.00 in/hr0.0 mm/hr 0.00 in0.0 mm
09:15 AM 75.7°F24.3°C 57.9°F14.4°C 54% 7.0 mph NNE11.3 kmh NNE 13.6 mph21.9 kmh 29.96 in1014.6 mb 0.00 in0.0 mm 0.00 in/hr0.0 mm/hr 0.00 in0.0 mm
09:00 AM 75.9°F24.4°C 57.1°F13.9°C 52% 5.9 mph NE9.5 kmh NE 15.9 mph25.6 kmh 29.96 in1014.6 mb 0.00 in0.0 mm 0.00 in/hr0.0 mm/hr 0.00 in0.0 mm
08:45 AM 75.6°F24.2°C 56.7°F13.7°C 52% 5.4 mph N8.7 kmh N 11.4 mph18.3 kmh 29.95 in1014.2 mb 0.00 in0.0 mm 0.00 in/hr0.0 mm/hr 0.00 in0.0 mm
08:30 AM 73.8°F23.2°C 56.6°F13.7°C 55% 7.7 mph ESE12.4 kmh ESE 13.6 mph21.9 kmh 29.95 in1014.2 mb 0.00 in0.0 mm 0.00 in/hr0.0 mm/hr 0.00 in0.0 mm
08:15 AM 72.5°F22.5°C 55.9°F13.3°C 56% 8.0 mph NE12.9 kmh NE 16.8 mph27.0 kmh 29.96 in1014.6 mb 0.00 in0.0 mm 0.00 in/hr0.0 mm/hr 0.00 in0.0 mm
08:00 AM 71.2°F21.8°C 56.7°F13.7°C 60% 7.3 mph ENE11.7 kmh ENE 15.2 mph24.5 kmh 29.95 in1014.2 mb 0.00 in0.0 mm 0.00 in/hr0.0 mm/hr 0.00 in0.0 mm
07:45 AM 68.0°F20.0°C 55.8°F13.2°C 65% 7.3 mph NE11.7 kmh NE 17.4 mph28.0 kmh 29.94 in1013.9 mb 0.00 in0.0 mm 0.00 in/hr0.0 mm/hr 0.00 in0.0 mm
07:30 AM 68.4°F20.2°C 55.3°F12.9°C 63% 6.5 mph ENE10.5 kmh ENE 14.5 mph23.3 kmh 29.96 in1014.6 mb 0.00 in0.0 mm 0.00 in/hr0.0 mm/hr 0.00 in0.0 mm
07:15 AM 69.6°F20.9°C 56.0°F13.3°C 62% 6.0 mph E9.7 kmh E 13.6 mph21.9 kmh 29.95 in1014.2 mb 0.00 in0.0 mm 0.00 in/hr0.0 mm/hr 0.00 in0.0 mm
07:00 AM 67.6°F19.8°C 55.9°F13.3°C 66% 4.4 mph ESE7.1 kmh ESE 11.4 mph18.3 kmh 29.95 in1014.2 mb 0.00 in0.0 mm 0.00 in/hr0.0 mm/hr 0.00 in0.0 mm
06:45 AM 64.2°F17.9°C 55.4°F13.0°C 73% 7.0 mph E11.3 kmh E 13.6 mph21.9 kmh 29.96 in1014.6 mb 0.00 in0.0 mm 0.00 in/hr0.0 mm/hr 0.00 in0.0 mm
06:30 AM 61.5°F16.4°C 55.0°F12.8°C 79% 4.9 mph E7.9 kmh E 11.4 mph18.3 kmh 29.96 in1014.6 mb 0.00 in0.0 mm 0.00 in/hr0.0 mm/hr 0.00 in0.0 mm
06:15 AM 61.3°F16.3°C 54.8°F12.7°C 79% 6.1 mph E9.8 kmh E 13.6 mph21.9 kmh 29.96 in1014.6 mb 0.00 in0.0 mm 0.00 in/hr0.0 mm/hr 0.00 in0.0 mm
06:00 AM 61.3°F16.3°C 54.8°F12.7°C 79% 6.9 mph E11.1 kmh E 17.4 mph28.0 kmh 29.96 in1014.6 mb 0.00 in0.0 mm 0.00 in/hr0.0 mm/hr 0.00 in0.0 mm
05:45 AM 60.8°F16.0°C 54.6°F12.6°C 80% 5.5 mph E8.9 kmh E 12.1 mph19.5 kmh 29.96 in1014.6 mb 0.00 in0.0 mm 0.00 in/hr0.0 mm/hr 0.00 in0.0 mm
05:30 AM 59.7°F15.4°C 54.2°F12.3°C 82% 5.1 mph E8.2 kmh E 12.1 mph19.5 kmh 29.96 in1014.6 mb 0.00 in0.0 mm 0.00 in/hr0.0 mm/hr 0.00 in0.0 mm
05:15 AM 58.6°F14.8°C 54.2°F12.3°C 85% 3.7 mph ESE6.0 kmh ESE 9.8 mph15.8 kmh 29.96 in1014.6 mb 0.00 in0.0 mm 0.00 in/hr0.0 mm/hr 0.00 in0.0 mm
05:00 AM 58.5°F14.7°C 53.7°F12.1°C 84% 4.1 mph E6.6 kmh E 7.6 mph12.2 kmh 29.96 in1014.6 mb 0.00 in0.0 mm 0.00 in/hr0.0 mm/hr 0.00 in0.0 mm
04:45 AM 58.6°F14.8°C 53.5°F11.9°C 83% 4.7 mph E7.6 kmh E 9.8 mph15.8 kmh 29.97 in1014.9 mb 0.00 in0.0 mm 0.00 in/hr0.0 mm/hr 0.00 in0.0 mm
04:30 AM 58.6°F14.8°C 53.5°F11.9°C 83% 5.2 mph E8.4 kmh E 9.8 mph15.8 kmh 29.97 in1014.9 mb 0.00 in0.0 mm 0.00 in/hr0.0 mm/hr 0.00 in0.0 mm
04:15 AM 58.5°F14.7°C 53.3°F11.8°C 83% 4.8 mph E7.7 kmh E 13.6 mph21.9 kmh 29.97 in1014.9 mb 0.00 in0.0 mm 0.00 in/hr0.0 mm/hr 0.00 in0.0 mm
04:00 AM 58.6°F14.8°C 53.5°F11.9°C 83% 5.2 mph E8.4 kmh E 12.1 mph19.5 kmh 29.97 in1014.9 mb 0.00 in0.0 mm 0.00 in/hr0.0 mm/hr 0.00 in0.0 mm
03:45 AM 58.5°F14.7°C 53.3°F11.8°C 83% 5.3 mph E8.5 kmh E 12.1 mph19.5 kmh 29.98 in1015.2 mb 0.00 in0.0 mm 0.00 in/hr0.0 mm/hr 0.00 in0.0 mm
03:30 AM 57.9°F14.4°C 52.8°F11.6°C 83% 4.9 mph E7.9 kmh E 10.7 mph17.2 kmh 29.98 in1015.2 mb 0.00 in0.0 mm 0.00 in/hr0.0 mm/hr 0.00 in0.0 mm
03:15 AM 57.7°F14.3°C 52.6°F11.4°C 83% 5.3 mph E8.5 kmh E 10.7 mph17.2 kmh 29.99 in1015.6 mb 0.00 in0.0 mm 0.00 in/hr0.0 mm/hr 0.00 in0.0 mm
03:00 AM 57.7°F14.3°C 52.6°F11.4°C 83% 5.0 mph ESE8.0 kmh ESE 9.8 mph15.8 kmh 29.99 in1015.6 mb 0.00 in0.0 mm 0.00 in/hr0.0 mm/hr 0.00 in0.0 mm
02:45 AM 58.3°F14.6°C 52.8°F11.6°C 82% 6.6 mph E10.6 kmh E 13.0 mph20.9 kmh 30.00 in1015.9 mb 0.00 in0.0 mm 0.00 in/hr0.0 mm/hr 0.00 in0.0 mm
02:30 AM 58.5°F14.7°C 53.0°F11.7°C 82% 6.9 mph E11.1 kmh E 12.1 mph19.5 kmh 30.00 in1015.9 mb 0.00 in0.0 mm 0.00 in/hr0.0 mm/hr 0.00 in0.0 mm
02:15 AM 58.6°F14.8°C 53.2°F11.8°C 82% 7.5 mph ESE12.1 kmh ESE 13.0 mph20.9 kmh 30.01 in1016.3 mb 0.00 in0.0 mm 0.00 in/hr0.0 mm/hr 0.00 in0.0 mm
02:00 AM 58.6°F14.8°C 52.8°F11.6°C 81% 6.3 mph E10.1 kmh E 12.1 mph19.5 kmh 30.02 in1016.6 mb 0.00 in0.0 mm 0.00 in/hr0.0 mm/hr 0.00 in0.0 mm
01:45 AM 58.8°F14.9°C 53.0°F11.7°C 81% 6.8 mph E10.9 kmh E 15.2 mph24.5 kmh 30.02 in1016.6 mb 0.00 in0.0 mm 0.00 in/hr0.0 mm/hr 0.00 in0.0 mm
01:30 AM 59.0°F15.0°C 52.9°F11.6°C 80% 6.9 mph E11.1 kmh E 14.5 mph23.3 kmh 30.03 in1016.9 mb 0.00 in0.0 mm 0.00 in/hr0.0 mm/hr 0.00 in0.0 mm
01:15 AM 59.0°F15.0°C 52.9°F11.6°C 80% 6.2 mph E10.0 kmh E 11.4 mph18.3 kmh 30.04 in1017.3 mb 0.00 in0.0 mm 0.00 in/hr0.0 mm/hr 0.00 in0.0 mm
01:00 AM 59.4°F15.2°C 52.9°F11.6°C 79% 6.2 mph ESE10.0 kmh ESE 12.1 mph19.5 kmh 30.05 in1017.6 mb 0.00 in0.0 mm 0.00 in/hr0.0 mm/hr 0.00 in0.0 mm
12:45 AM 59.5°F15.3°C 52.7°F11.5°C 78% 4.9 mph ESE7.9 kmh ESE 9.8 mph15.8 kmh 30.04 in1017.3 mb 0.00 in0.0 mm 0.00 in/hr0.0 mm/hr 0.00 in0.0 mm
12:30 AM 60.1°F15.6°C 52.1°F11.2°C 75% 5.0 mph ESE8.0 kmh ESE 11.4 mph18.3 kmh 30.04 in1017.3 mb 0.00 in0.0 mm 0.00 in/hr0.0 mm/hr 0.00 in0.0 mm
12:15 AM 60.4°F15.8°C 52.1°F11.2°C 74% 4.5 mph ESE7.2 kmh ESE 9.2 mph14.8 kmh 30.04 in1017.3 mb 0.00 in0.0 mm 0.00 in/hr0.0 mm/hr 0.00 in0.0 mm
12:00 AM 60.8°F16.0°C 51.4°F10.8°C 71% 4.9 mph E7.9 kmh E 11.4 mph18.3 kmh 30.04 in1017.3 mb 0.00 in0.0 mm 0.00 in/hr0.0 mm/hr 0.00 in0.0 mm